Terminal Aerodrome Forecast
Issued by NWS Upton, NY

Home | Current Version | Previous Version | Text Only | Print | Product List | Glossary On
Versions: 1 2 3 4 5 6 7 8 9 10 11 12 13 14 15 16 17 18 19 20 21 22 23 24 25 26
000
FTUS41 KOKX 290800 AAA
TAFLGA
TAF AMD
KLGA 290852Z 2909/3006 02005KT P6SM SKC
     FM291400 VRB04KT P6SM SKC
     FM291800 14006KT P6SM SCT025 BKN120
     FM292300 15010KT P6SM SCT025 BKN080
     FM300200 19010G16KT P6SM BKN025 BKN050
     FM300400 19008KT 3SM -SN BKN015=

USA.gov is the U.S. government's official web portal to all federal, state and local government web resources and services.